createdAt,value
2023-03-27T00:02:26.397Z,4.1
2023-03-27T00:07:26.252Z,3.3
2023-03-27T00:12:26.155Z,4.2
2023-03-27T00:17:26.132Z,4.5
2023-03-27T00:22:27.089Z,3.8
2023-03-27T00:27:26.007Z,4.3
2023-03-27T00:32:26.033Z,3.4
2023-03-27T00:37:25.937Z,4.1
2023-03-27T00:42:25.874Z,3.6
2023-03-27T00:47:25.866Z,3.8
2023-03-27T00:52:25.773Z,3.3
2023-03-27T00:57:25.857Z,3.7
2023-03-27T01:02:25.880Z,3.7
2023-03-27T01:07:25.737Z,3.0
2023-03-27T01:12:25.669Z,3.3
2023-03-27T01:17:25.626Z,2.9
2023-03-27T01:22:25.454Z,2.7
2023-03-27T01:27:25.395Z,5.2
2023-03-27T01:32:25.373Z,2.7
2023-03-27T01:37:25.264Z,3.6
2023-03-27T01:42:25.398Z,3.4
2023-03-27T01:47:25.230Z,3.7
2023-03-27T01:52:25.157Z,3.1
2023-03-27T01:57:25.091Z,2.7
2023-03-27T02:02:25.148Z,2.4
2023-03-27T02:07:24.989Z,3.4
2023-03-27T02:12:25.070Z,3.4
2023-03-27T02:17:34.869Z,2.7
2023-03-27T02:22:38.209Z,4.1
2023-03-27T02:27:25.654Z,3.0
2023-03-27T02:32:24.719Z,3.3
2023-03-27T02:37:24.669Z,3.3
2023-03-27T02:42:25.495Z,2.7
2023-03-27T02:47:24.574Z,4.0
2023-03-27T02:52:24.416Z,2.8
2023-03-27T02:57:25.258Z,2.7
2023-03-27T03:02:24.365Z,2.9
2023-03-27T03:07:24.242Z,3.1
2023-03-27T03:12:24.197Z,3.5
2023-03-27T03:17:24.146Z,3.8
2023-03-27T03:22:24.074Z,2.8
2023-03-27T03:27:24.026Z,3.0
2023-03-27T03:32:24.040Z,2.7
2023-03-27T03:37:23.951Z,3.1
2023-03-27T03:42:24.348Z,3.3
2023-03-27T03:47:23.855Z,2.9
2023-03-27T03:52:23.769Z,3.3
2023-03-27T03:57:23.802Z,3.8
2023-03-27T04:02:23.779Z,2.8
2023-03-27T04:07:23.622Z,2.9
2023-03-27T04:12:23.544Z,3.1
2023-03-27T04:17:23.525Z,2.4
2023-03-27T04:22:23.440Z,2.6
2023-03-27T04:27:23.414Z,2.5
2023-03-27T04:32:23.442Z,3.0
2023-03-27T04:37:24.209Z,3.4
2023-03-27T04:42:23.384Z,2.8
2023-03-27T04:47:23.246Z,3.0
2023-03-27T04:52:23.109Z,2.9
2023-03-27T04:57:23.071Z,2.7
2023-03-27T05:02:23.188Z,3.0
2023-03-27T05:07:22.960Z,3.0
2023-03-27T05:12:23.909Z,3.3
2023-03-27T05:17:23.006Z,3.0
2023-03-27T05:22:22.804Z,3.0
2023-03-27T05:27:22.748Z,3.4
2023-03-27T05:32:22.817Z,3.0
2023-03-27T05:37:22.638Z,3.5
2023-03-27T05:42:22.792Z,4.6
2023-03-27T05:47:22.546Z,3.6
2023-03-27T05:52:22.812Z,4.2
2023-03-27T05:57:23.444Z,4.8
2023-03-27T06:02:22.527Z,4.0
2023-03-27T06:07:22.287Z,3.4
2023-03-27T06:08:35.506Z,3.1
2023-03-27T06:13:35.475Z,3.1
2023-03-27T06:18:35.410Z,3.8
2023-03-27T06:23:35.344Z,4.1
2023-03-27T06:28:35.268Z,3.7
2023-03-27T06:33:35.228Z,3.8
2023-03-27T06:38:35.166Z,3.7
2023-03-27T06:43:35.125Z,3.7
2023-03-27T06:48:35.144Z,3.4
2023-03-27T06:53:37.527Z,3.4
2023-03-27T06:58:34.944Z,3.3
2023-03-27T07:03:34.919Z,3.5
2023-03-27T07:08:34.839Z,3.0
2023-03-27T07:13:34.843Z,3.2
2023-03-27T07:18:34.745Z,2.8
2023-03-27T07:23:34.672Z,3.0
2023-03-27T07:28:35.017Z,2.9
2023-03-27T07:33:34.836Z,3.4
2023-03-27T07:38:34.499Z,2.5
2023-03-27T07:43:34.524Z,3.1
2023-03-27T07:48:34.459Z,2.5
2023-03-27T07:53:34.794Z,2.4
2023-03-27T07:58:34.342Z,2.2
2023-03-27T08:03:34.459Z,3.0
2023-03-27T08:08:34.257Z,2.0
2023-03-27T08:13:34.195Z,1.6
2023-03-27T08:18:34.133Z,1.9
2023-03-27T08:23:34.084Z,1.4
2023-03-27T08:28:33.997Z,2.1
2023-03-27T08:33:33.959Z,3.1
2023-03-27T08:38:33.922Z,3.0
2023-03-27T08:43:33.822Z,2.6
2023-03-27T08:48:33.751Z,1.6
2023-03-27T08:53:33.705Z,4.2
2023-03-27T08:58:33.613Z,2.0
2023-03-27T09:03:33.739Z,2.4
2023-03-27T09:08:33.538Z,2.5
2023-03-27T09:13:33.476Z,2.0
2023-03-27T09:18:33.439Z,2.2
2023-03-27T09:23:33.351Z,2.4
2023-03-27T09:28:33.291Z,2.2
2023-03-27T09:33:33.347Z,2.3
2023-03-27T09:38:33.222Z,2.4
2023-03-27T09:43:33.114Z,1.5
2023-03-27T09:48:33.080Z,1.7
2023-03-27T09:53:41.875Z,1.7
2023-03-27T09:58:32.965Z,1.8
2023-03-27T10:03:32.993Z,2.4
2023-03-27T10:08:32.910Z,2.1
2023-03-27T10:13:32.830Z,2.2
2023-03-27T10:18:32.799Z,1.8
2023-03-27T10:23:32.787Z,1.8
2023-03-27T10:28:32.679Z,1.7
2023-03-27T10:33:32.602Z,1.4
2023-03-27T10:38:32.571Z,1.6
2023-03-27T10:43:32.521Z,1.7
2023-03-27T10:48:32.457Z,1.7
2023-03-27T10:53:32.465Z,1.4
2023-03-27T10:58:32.383Z,0.7
2023-03-27T11:03:32.286Z,1.4
2023-03-27T11:08:33.272Z,1.1
2023-03-27T11:13:32.250Z,0.9
2023-03-27T11:18:32.155Z,1.3
2023-03-27T11:23:32.083Z,1.0
2023-03-27T11:28:32.141Z,1.2
2023-03-27T11:33:32.005Z,1.5
2023-03-27T11:38:31.869Z,1.4
2023-03-27T11:43:31.841Z,1.4
2023-03-27T11:48:31.804Z,1.4
2023-03-27T11:53:31.766Z,1.2
2023-03-27T11:58:31.690Z,1.1
2023-03-27T12:03:31.652Z,0.7
2023-03-27T12:08:31.541Z,0.8
2023-03-27T12:13:40.597Z,1.3
2023-03-27T12:18:36.215Z,1.0
2023-03-27T12:23:31.402Z,1.0
2023-03-27T12:28:31.319Z,1.0
2023-03-27T12:33:31.248Z,1.2
2023-03-27T12:38:31.230Z,2.0
2023-03-27T12:43:31.172Z,1.4
2023-03-27T12:48:31.107Z,1.4
2023-03-27T12:53:31.024Z,1.5
2023-03-27T12:58:31.033Z,1.6
2023-03-27T13:03:31.058Z,1.5
2023-03-27T13:08:30.878Z,1.5
2023-03-27T13:13:30.872Z,1.4
2023-03-27T13:18:30.806Z,1.3
2023-03-27T13:23:30.719Z,1.4
2023-03-27T13:28:30.655Z,1.1
2023-03-27T13:33:30.611Z,1.3
2023-03-27T13:38:30.538Z,0.9
2023-03-27T13:43:30.520Z,1.3
2023-03-27T13:48:30.480Z,1.9
2023-03-27T13:53:30.409Z,0.8
2023-03-27T13:58:30.361Z,1.0
2023-03-27T14:03:30.315Z,1.0
2023-03-27T14:08:30.281Z,0.7
2023-03-27T14:13:30.211Z,1.1
2023-03-27T14:18:30.178Z,1.0
2023-03-27T14:23:30.056Z,0.9
2023-03-27T14:28:29.998Z,1.0
2023-03-27T14:33:29.939Z,0.7
2023-03-27T14:38:29.920Z,1.0
2023-03-27T14:43:29.845Z,2.0
2023-03-27T14:48:29.771Z,1.3
2023-03-27T14:53:29.745Z,1.2
2023-03-27T14:58:29.668Z,1.2
2023-03-27T15:03:29.713Z,1.8
2023-03-27T15:08:32.952Z,1.7
2023-03-27T15:13:29.530Z,2.0
2023-03-27T15:18:29.502Z,2.2
2023-03-27T15:23:29.529Z,1.1
2023-03-27T15:28:29.336Z,1.2
2023-03-27T15:33:29.348Z,1.0
2023-03-27T15:38:29.221Z,1.1
2023-03-27T15:43:29.157Z,1.7
2023-03-27T15:48:29.124Z,0.9
2023-03-27T15:53:29.044Z,1.6
2023-03-27T15:58:29.016Z,1.0
2023-03-27T16:03:29.214Z,1.3
2023-03-27T16:08:28.913Z,1.8
2023-03-27T16:13:28.981Z,1.3
2023-03-27T16:18:28.768Z,1.6
2023-03-27T16:23:28.774Z,1.7
2023-03-27T16:28:28.655Z,1.3
2023-03-27T16:33:37.449Z,1.1
2023-03-27T16:38:28.543Z,1.8
2023-03-27T16:43:28.496Z,1.7
2023-03-27T16:48:28.448Z,1.4
2023-03-27T16:53:28.366Z,1.5
2023-03-27T16:58:28.427Z,1.5
2023-03-27T17:03:28.282Z,1.3
2023-03-27T17:08:28.218Z,2.4
2023-03-27T17:13:28.178Z,5.0
2023-03-27T17:18:28.148Z,2.7
2023-03-27T17:23:28.105Z,1.2
2023-03-27T17:28:28.058Z,1.5
2023-03-27T17:33:27.961Z,1.3
2023-03-27T17:38:27.871Z,1.6
2023-03-27T17:43:27.847Z,1.9
2023-03-27T17:48:27.754Z,2.7
2023-03-27T17:53:27.792Z,5.9
2023-03-27T17:58:27.753Z,2.7
2023-03-27T18:03:27.862Z,3.0
2023-03-27T18:08:27.624Z,1.7
2023-03-27T18:13:27.488Z,2.6
2023-03-27T18:18:27.508Z,3.0
2023-03-27T18:23:27.419Z,4.5
2023-03-27T18:28:28.360Z,3.2
2023-03-27T18:33:27.275Z,3.2
2023-03-27T18:38:27.311Z,2.7
2023-03-27T18:43:27.274Z,3.7
2023-03-27T18:48:27.134Z,2.0
2023-03-27T18:53:27.109Z,3.2
2023-03-27T18:58:27.024Z,4.1
2023-03-27T19:03:27.036Z,3.9
2023-03-27T19:08:27.051Z,4.2
2023-03-27T19:13:26.882Z,4.0
2023-03-27T19:18:26.874Z,4.2
2023-03-27T19:23:27.894Z,2.9
2023-03-27T19:28:26.693Z,3.1
2023-03-27T19:33:26.623Z,3.2
2023-03-27T19:38:26.578Z,5.9
2023-03-27T19:43:26.534Z,3.2
2023-03-27T19:48:26.465Z,2.7
2023-03-27T19:53:27.508Z,3.0
2023-03-27T19:58:26.394Z,3.1
2023-03-27T20:03:26.589Z,3.0
2023-03-27T20:08:27.439Z,3.2
2023-03-27T20:13:26.202Z,5.3
2023-03-27T20:18:26.136Z,2.7
2023-03-27T20:23:26.089Z,4.0
2023-03-27T20:28:26.056Z,3.2
2023-03-27T20:33:25.995Z,6.6
2023-03-27T20:38:25.929Z,4.2
2023-03-27T20:43:25.832Z,4.6
2023-03-27T20:48:25.953Z,3.7
2023-03-27T20:53:25.756Z,3.4
2023-03-27T20:58:25.825Z,3.4
2023-03-27T21:03:25.708Z,5.2
2023-03-27T21:08:25.623Z,4.0
2023-03-27T21:13:25.535Z,4.0
2023-03-27T21:18:25.498Z,3.2
2023-03-27T21:23:25.629Z,3.7
2023-03-27T21:28:25.350Z,3.7
2023-03-27T21:33:25.343Z,3.9
2023-03-27T21:38:25.283Z,3.6
2023-03-27T21:43:25.315Z,3.8
2023-03-27T21:48:25.234Z,3.9
2023-03-27T21:53:25.252Z,3.6
2023-03-27T21:58:25.204Z,3.5
2023-03-27T22:03:25.013Z,3.5
2023-03-27T22:08:24.944Z,3.8
2023-03-27T22:13:24.916Z,3.9
2023-03-27T22:18:24.836Z,6.7
2023-03-27T22:23:24.919Z,4.5
2023-03-27T22:28:24.733Z,3.7
2023-03-27T22:33:24.679Z,3.4
2023-03-27T22:38:24.593Z,3.4
2023-03-27T22:43:24.575Z,3.4
2023-03-27T22:48:24.578Z,4.2
2023-03-27T22:53:24.448Z,4.1
2023-03-27T22:58:24.441Z,4.5
2023-03-27T23:03:24.568Z,4.0
2023-03-27T23:08:24.268Z,3.3
2023-03-27T23:13:24.225Z,3.9
2023-03-27T23:18:24.319Z,3.9
2023-03-27T23:23:24.115Z,4.7
2023-03-27T23:28:24.207Z,4.1
2023-03-27T23:33:24.070Z,4.3
2023-03-27T23:38:24.058Z,4.4
2023-03-27T23:43:23.884Z,3.9
2023-03-27T23:48:23.969Z,4.0
2023-03-27T23:53:23.791Z,4.1
2023-03-27T23:58:23.735Z,9.9
